Jackson, NE

10:21 PM CDT on May 06, 2015 (GMT -0500)
Le Mars Municipal | | Change Station
CLOSE
Current Station
Airport
Location: Le Mars,
Elevation: 1198 ft
Nearby Weather Stations

Elev 1198 ft 42.78 °N, 96.19 °W | Updated 26 minutes ago

Rain
Rain
66 °F
Feels Like 66 °F
N
13
Wind Variable Wind from SE
Gusts 20 mph

Today
High -- | Low -- °F
--% Chance of Precip.
Yesterday
High -- | Low -- °F
Precip. -- in
6:15 AM 8:31 PM
Waning Gibbous, 91% visible
Pressure 29.72 in
Visibility 10.0 miles
Clouds Few 300 ft
Mostly Cloudy 3500 ft
Overcast 5000 ft
Dew Point 61 °F
Humidity 83%
Rainfall 0.12 in
Snow Depth Not available.
UV 0 out of 12
Pollen 8.30 out of 12
Air Quality Not available.
Flu Activity Local Activity
METAR KLRJ 070255Z AUTO 14011G17KT 10SM FEW003 BKN035 OVC050 19/16 A2972 RMK AO2 P0005

More Conditions Fewer Conditions

Pressure 29.72 in
Visibility 10.0 miles
Clouds Few 300 ft
Mostly Cloudy 3500 ft
Overcast 5000 ft
Dew Point 61 °F
Humidity 83%
Rainfall 0.12 in
Snow Depth Not available.
UV 0 out of 12
Pollen 8.30 out of 12
Air Quality Not available.
Flu Activity Local Activity
METAR KLRJ 070255Z AUTO 14011G17KT 10SM FEW003 BKN035 OVC050 19/16 A2972 RMK AO2 P0005

More Conditions Fewer Conditions

10-Day Weather Forecast

Almanac

Astronomy

May. 06, 2015 Rise Set
Actual Time
Civil Twilight
Nautical Twilight
Astronomical Twilight
Moon
Length of Visible Light
Length of Day
Tomorrow will be .
, % of the Moon is Illuminated

Today's Extremes

State Highs State Lows

Community

WunderPhotos

Upload Photos

1,819,101 photos uploaded!

WunderBlogs® & News

Nearby

Air Quality

  Air Quality AQ Index Pollutant
Not available.

Snow Depth

Station Depth Elevation

Earthquake Activity

City Distance Mag. Time & Date
Minimum magnitude displayed is 2.5.

Coastal Water Temperatures

Place Temperature

Stations

Nearby Weather Stations

Station Location Temp. Windchill Dew Point Humidity Wind Precip. Elev Updated Type